Time;durP1;ratioP1;P1;durP2;ratioP2;P2;SDS_P1;SDS_P2;PMS_P1;PMS_P2;Temp;Humidity;BMP_temperature;BMP_pressure;BME280_temperature;BME280_humidity;BME280_pressure;Samples;Min_cycle;Max_cycle;Signal;HPM_P1;HPM_P2
2023/07/08 00:00:42;;;;;;;4.80;2.70;;;;;;;;;;4947872;28;20023;-76
2023/07/08 00:03:08;;;;;;;2.45;2.10;;;;;;;;;;4946980;28;20122;-76
2023/07/08 00:05:34;;;;;;;1.90;1.80;;;;;;;;;;4946030;28;20042;-76
2023/07/08 00:07:59;;;;;;;1.88;1.67;;;;;;;;;;4947227;28;20034;-76
2023/07/08 00:10:26;;;;;;;4.20;1.83;;;;;;;;;;4944171;28;20031;-76
2023/07/08 00:12:54;;;;;;;2.63;1.95;;;;;;;;;;4944003;28;20024;-76
2023/07/08 00:15:26;;;;;;;2.83;2.13;;;;;;;;;;4945726;28;20514;-76
2023/07/08 00:17:51;;;;;;;3.33;1.75;;;;;;;;;;4947104;28;20414;-76
2023/07/08 00:20:20;;;;;;;2.65;2.22;;;;;;;;;;4947135;28;20023;-77
2023/07/08 00:22:52;;;;;;;2.85;2.17;;;;;;;;;;4946343;28;20019;-76
2023/07/08 00:25:19;;;;;;;4.13;2.20;;;;;;;;;;4944714;28;20114;-76
2023/07/08 00:27:47;;;;;;;3.35;2.00;;;;;;;;;;4943576;28;20503;-76
2023/07/08 00:30:22;;;;;;;3.22;2.22;;;;;;;;;;4945696;28;20359;-76
2023/07/08 00:32:53;;;;;;;3.83;1.88;;;;;;;;;;4947799;28;20019;-76
2023/07/08 00:35:19;;;;;;;2.50;2.30;;;;;;;;;;4940588;28;20059;-76
2023/07/08 00:37:46;;;;;;;2.75;2.40;;;;;;;;;;4940518;28;20027;-76
2023/07/08 00:40:17;;;;;;;1.95;1.80;;;;;;;;;;4943531;28;20026;-76
2023/07/08 00:42:44;;;;;;;2.90;2.30;;;;;;;;;;4940182;28;20384;-76
2023/07/08 00:45:36;;;;;;;1.90;1.80;;;;;;;;;;4937598;28;20023;-76
2023/07/08 00:48:17;;;;;;;3.65;2.30;;;;;;;;;;4938806;28;20039;-76
2023/07/08 00:50:43;;;;;;;2.13;1.90;;;;;;;;;;4940801;28;20031;-75
2023/07/08 00:53:26;;;;;;;2.92;2.42;;;;;;;;;;4944045;28;20023;-76
2023/07/08 00:55:56;;;;;;;1.77;1.60;;;;;;;;;;4939127;28;20023;-76
2023/07/08 00:58:25;;;;;;;3.40;2.00;;;;;;;;;;4946440;28;20019;-76
2023/07/08 01:00:52;;;;;;;2.33;1.90;;;;;;;;;;4942190;28;20074;-76
2023/07/08 01:03:18;;;;;;;1.90;1.70;;;;;;;;;;4939822;28;20227;-76
2023/07/08 01:05:46;;;;;;;4.70;2.22;;;;;;;;;;4938311;28;20035;-76
2023/07/08 01:08:11;;;;;;;2.20;1.63;;;;;;;;;;4940997;28;20050;-76
2023/07/08 01:10:45;;;;;;;1.83;1.73;;;;;;;;;;4947627;28;20051;-76
2023/07/08 01:13:14;;;;;;;2.38;1.60;;;;;;;;;;4944089;28;20035;-76
2023/07/08 01:15:42;;;;;;;2.08;1.80;;;;;;;;;;4938991;28;20039;-76
2023/07/08 01:18:11;;;;;;;3.63;2.00;;;;;;;;;;4939995;28;20377;-76
2023/07/08 01:20:37;;;;;;;2.15;1.95;;;;;;;;;;4945554;28;20088;-76
2023/07/08 01:23:02;;;;;;;1.85;1.70;;;;;;;;;;4945942;28;20027;-76
2023/07/08 01:25:28;;;;;;;1.63;1.52;;;;;;;;;;4945417;28;20054;-76
2023/07/08 01:27:55;;;;;;;2.03;1.80;;;;;;;;;;4945898;28;20031;-76
2023/07/08 01:30:21;;;;;;;2.00;1.58;;;;;;;;;;4946822;28;20042;-77
2023/07/08 01:32:50;;;;;;;2.72;2.15;;;;;;;;;;4944584;28;20023;-76
2023/07/08 01:35:16;;;;;;;2.13;1.83;;;;;;;;;;4942471;28;20420;-75
2023/07/08 01:37:48;;;;;;;2.97;2.13;;;;;;;;;;4945348;28;20030;-75
2023/07/08 01:40:26;;;;;;;1.50;1.40;;;;;;;;;;4938386;28;20488;-76
2023/07/08 01:42:52;;;;;;;2.70;2.03;;;;;;;;;;4947401;28;20522;-76
2023/07/08 01:45:23;;;;;;;2.47;1.80;;;;;;;;;;4943410;28;20480;-76
2023/07/08 01:47:54;;;;;;;;;;;;;;;;;;4944001;28;20501;-75
2023/07/08 01:50:20;;;;;;;;;;;;;;;;;;4945086;28;19929;-75
2023/07/08 01:52:48;;;;;;;2.25;1.80;;;;;;;;;;4939804;28;19922;-76
2023/07/08 01:55:13;;;;;;;1.90;1.80;;;;;;;;;;4937938;28;20060;-76
2023/07/08 01:57:38;;;;;;;2.00;1.73;;;;;;;;;;4942243;28;20485;-76
2023/07/08 02:00:05;;;;;;;1.70;1.50;;;;;;;;;;4940820;28;20022;-76
2023/07/08 02:02:30;;;;;;;4.85;2.10;;;;;;;;;;4942067;28;20520;-75
2023/07/08 02:04:56;;;;;;;2.17;1.98;;;;;;;;;;4943233;28;20050;-76
2023/07/08 02:07:21;;;;;;;2.35;2.15;;;;;;;;;;4946346;28;20546;-76
2023/07/08 02:09:46;;;;;;;2.13;1.52;;;;;;;;;;4950837;28;20035;-76
2023/07/08 02:12:12;;;;;;;2.67;2.33;;;;;;;;;;4945372;28;20024;-76
2023/07/08 02:14:37;;;;;;;6.90;2.20;;;;;;;;;;4946653;28;20086;-76
2023/07/08 02:17:05;;;;;;;1.63;1.50;;;;;;;;;;4946160;28;20050;-76
2023/07/08 02:19:31;;;;;;;1.75;1.50;;;;;;;;;;4951017;28;20023;-76
2023/07/08 02:21:56;;;;;;;2.15;1.90;;;;;;;;;;4949045;28;20038;-76
2023/07/08 02:24:22;;;;;;;1.77;1.50;;;;;;;;;;4950054;28;20452;-76
2023/07/08 02:26:48;;;;;;;1.80;1.70;;;;;;;;;;4946437;28;20032;-75
2023/07/08 02:29:14;;;;;;;2.20;2.00;;;;;;;;;;4948910;28;20046;-76
2023/07/08 02:31:39;;;;;;;1.95;1.80;;;;;;;;;;4949525;28;20019;-76
2023/07/08 02:34:05;;;;;;;2.08;1.77;;;;;;;;;;4948866;28;20023;-75
2023/07/08 02:36:30;;;;;;;2.22;2.03;;;;;;;;;;4948275;28;20019;-76
2023/07/08 02:38:55;;;;;;;2.47;1.90;;;;;;;;;;4947866;28;20369;-76
2023/07/08 02:41:21;;;;;;;3.00;2.13;;;;;;;;;;4949283;28;20154;-76
2023/07/08 02:43:46;;;;;;;2.20;1.98;;;;;;;;;;4943594;28;20035;-76
2023/07/08 02:46:12;;;;;;;1.40;1.30;;;;;;;;;;4945401;28;20031;-76
2023/07/08 02:48:37;;;;;;;2.08;1.83;;;;;;;;;;4939359;28;20032;-76
2023/07/08 02:51:04;;;;;;;2.42;1.67;;;;;;;;;;4947170;28;20027;-76
2023/07/08 02:53:30;;;;;;;2.17;1.70;;;;;;;;;;4946341;28;20031;-76
2023/07/08 02:55:56;;;;;;;3.30;2.03;;;;;;;;;;4945375;28;20027;-76
2023/07/08 02:58:21;;;;;;;3.00;1.90;;;;;;;;;;4948224;28;20054;-75
2023/07/08 03:00:54;;;;;;;2.17;1.90;;;;;;;;;;4947398;28;20110;-75
2023/07/08 03:03:19;;;;;;;1.77;1.67;;;;;;;;;;4942200;28;20039;-75
2023/07/08 03:05:53;;;;;;;2.28;1.98;;;;;;;;;;4940983;28;20050;-75
2023/07/08 03:08:19;;;;;;;3.97;2.20;;;;;;;;;;4940246;28;20027;-76
2023/07/08 03:10:48;;;;;;;2.03;1.85;;;;;;;;;;4946168;28;20081;-75
2023/07/08 03:13:14;;;;;;;1.52;1.40;;;;;;;;;;4947330;28;20089;-76
2023/07/08 03:15:39;;;;;;;2.38;1.67;;;;;;;;;;4944306;28;20040;-76
2023/07/08 03:18:05;;;;;;;2.08;1.88;;;;;;;;;;4941547;28;20028;-76
2023/07/08 03:20:32;;;;;;;1.60;1.50;;;;;;;;;;4943662;28;20093;-76
2023/07/08 03:22:57;;;;;;;2.60;2.10;;;;;;;;;;4939171;28;20030;-76
2023/07/08 03:25:24;;;;;;;1.90;1.80;;;;;;;;;;4946989;28;20138;-76
2023/07/08 03:27:50;;;;;;;3.90;2.00;;;;;;;;;;4944099;28;20023;-75
2023/07/08 03:30:15;;;;;;;1.40;1.30;;;;;;;;;;4938723;28;20027;-75
2023/07/08 03:32:40;;;;;;;2.17;2.00;;;;;;;;;;4944308;28;20031;-75
2023/07/08 03:35:07;;;;;;;1.88;1.75;;;;;;;;;;4941565;28;20019;-75
2023/07/08 03:37:32;;;;;;;2.47;2.20;;;;;;;;;;4955919;28;20030;-75
2023/07/08 03:39:58;;;;;;;2.45;1.73;;;;;;;;;;4945345;28;20559;-76
2023/07/08 03:42:23;;;;;;;1.90;1.80;;;;;;;;;;4946286;28;20031;-75
2023/07/08 03:44:48;;;;;;;1.83;1.70;;;;;;;;;;4948034;28;20131;-75
2023/07/08 03:47:14;;;;;;;1.70;1.60;;;;;;;;;;4948661;28;20588;-75
2023/07/08 03:49:39;;;;;;;2.53;2.13;;;;;;;;;;4944298;28;20027;-76
2023/07/08 03:52:05;;;;;;;2.10;1.90;;;;;;;;;;4943392;28;20019;-76
2023/07/08 03:54:30;;;;;;;1.63;1.50;;;;;;;;;;4945434;28;20019;-75
2023/07/08 03:56:56;;;;;;;2.60;2.20;;;;;;;;;;4947763;28;20483;-75
2023/07/08 03:59:21;;;;;;;3.35;2.25;;;;;;;;;;4950077;28;20019;-75
2023/07/08 04:01:47;;;;;;;2.97;2.50;;;;;;;;;;4942810;28;20043;-75
2023/07/08 04:04:14;;;;;;;2.60;1.75;;;;;;;;;;4945728;28;20078;-76
2023/07/08 04:06:40;;;;;;;3.08;2.17;;;;;;;;;;4948429;28;20114;-76
2023/07/08 04:09:06;;;;;;;2.45;2.00;;;;;;;;;;4947181;28;20110;-76
2023/07/08 04:11:32;;;;;;;2.30;2.10;;;;;;;;;;4948476;28;20391;-75
2023/07/08 04:13:57;;;;;;;2.03;1.83;;;;;;;;;;4945529;28;20125;-75
2023/07/08 04:16:29;;;;;;;5.43;2.42;;;;;;;;;;4939741;28;20129;-75
2023/07/08 04:18:56;;;;;;;2.22;2.03;;;;;;;;;;4943459;28;20023;-75
2023/07/08 04:21:23;;;;;;;2.38;1.48;;;;;;;;;;4943514;28;20027;-75
2023/07/08 04:23:48;;;;;;;3.00;2.50;;;;;;;;;;4946063;28;20098;-76
2023/07/08 04:26:14;;;;;;;3.47;2.15;;;;;;;;;;4942003;28;20128;-76
2023/07/08 04:28:41;;;;;;;3.35;2.78;;;;;;;;;;4948339;28;20106;-76
2023/07/08 04:31:06;;;;;;;4.30;2.70;;;;;;;;;;4943397;28;20031;-76
2023/07/08 04:33:32;;;;;;;3.08;2.50;;;;;;;;;;4933755;28;20086;-76
2023/07/08 04:35:57;;;;;;;2.30;2.10;;;;;;;;;;4940052;28;20423;-76
2023/07/08 04:38:24;;;;;;;3.28;2.72;;;;;;;;;;4937950;28;20081;-76
2023/07/08 04:40:51;;;;;;;3.63;2.67;;;;;;;;;;4939120;28;20552;-75
2023/07/08 04:43:17;;;;;;;3.28;2.78;;;;;;;;;;4937259;28;20547;-75
2023/07/08 04:45:45;;;;;;;3.15;2.75;;;;;;;;;;4940036;28;20039;-75
2023/07/08 04:48:13;;;;;;;5.80;3.00;;;;;;;;;;4943657;28;20404;-75
2023/07/08 04:50:43;;;;;;;3.08;2.53;;;;;;;;;;4938444;28;20019;-76
2023/07/08 04:53:09;;;;;;;3.80;2.58;;;;;;;;;;4938838;28;20035;-75
2023/07/08 04:55:41;;;;;;;4.28;2.65;;;;;;;;;;4940861;28;20027;-75
2023/07/08 04:58:06;;;;;;;5.35;3.28;;;;;;;;;;4941314;28;20019;-76
2023/07/08 05:00:32;;;;;;;3.50;3.00;;;;;;;;;;4944629;28;20504;-75
2023/07/08 05:02:57;;;;;;;4.90;2.90;;;;;;;;;;4950198;28;20093;-75
2023/07/08 05:05:23;;;;;;;3.95;2.95;;;;;;;;;;4947005;28;20030;-75
2023/07/08 05:07:49;;;;;;;4.90;2.92;;;;;;;;;;4942641;28;20023;-75
2023/07/08 05:10:15;;;;;;;4.38;2.50;;;;;;;;;;4942489;28;20028;-75
2023/07/08 05:12:42;;;;;;;3.67;2.78;;;;;;;;;;4939768;28;20062;-75
2023/07/08 05:15:07;;;;;;;4.38;2.88;;;;;;;;;;4942630;28;20027;-75
2023/07/08 05:17:33;;;;;;;4.65;2.90;;;;;;;;;;4944030;28;20031;-75
2023/07/08 05:20:00;;;;;;;4.55;2.90;;;;;;;;;;4940030;28;20035;-75
2023/07/08 05:22:26;;;;;;;3.03;2.72;;;;;;;;;;4939579;28;20067;-75
2023/07/08 05:24:55;;;;;;;4.10;2.50;;;;;;;;;;4936374;28;20416;-75
2023/07/08 05:27:22;;;;;;;5.63;2.80;;;;;;;;;;4932876;28;20038;-75
2023/07/08 05:29:47;;;;;;;4.50;2.63;;;;;;;;;;4939780;28;20038;-76
2023/07/08 05:32:12;;;;;;;4.70;2.58;;;;;;;;;;4939379;28;20028;-76
2023/07/08 05:34:38;;;;;;;3.10;2.65;;;;;;;;;;4935641;28;20038;-75
2023/07/08 05:37:03;;;;;;;3.85;3.00;;;;;;;;;;4941207;28;20023;-76
2023/07/08 05:39:32;;;;;;;3.90;2.97;;;;;;;;;;4939617;28;20031;-76
2023/07/08 05:41:58;;;;;;;3.75;3.13;;;;;;;;;;4938990;28;20423;-76
2023/07/08 05:44:23;;;;;;;3.90;2.67;;;;;;;;;;4932126;28;20023;-75
2023/07/08 05:46:49;;;;;;;3.28;2.97;;;;;;;;;;4936740;28;20377;-75
2023/07/08 05:49:15;;;;;;;5.03;3.15;;;;;;;;;;4941006;28;20035;-76
2023/07/08 05:51:40;;;;;;;5.70;2.90;;;;;;;;;;4942020;28;20055;-75
2023/07/08 05:54:06;;;;;;;4.72;2.90;;;;;;;;;;4933574;28;20035;-75
2023/07/08 05:56:31;;;;;;;3.97;3.00;;;;;;;;;;4936265;28;20023;-75
2023/07/08 05:58:57;;;;;;;4.38;3.15;;;;;;;;;;4940308;28;20045;-76
2023/07/08 06:01:22;;;;;;;3.20;2.70;;;;;;;;;;4942482;28;20537;-75
2023/07/08 06:03:48;;;;;;;3.00;2.67;;;;;;;;;;4939513;28;20106;-76
2023/07/08 06:06:13;;;;;;;4.38;2.75;;;;;;;;;;4943533;28;20034;-75
2023/07/08 06:08:39;;;;;;;3.20;2.95;;;;;;;;;;4942202;28;20039;-76
2023/07/08 06:11:04;;;;;;;3.53;3.17;;;;;;;;;;4941824;28;20031;-76
2023/07/08 06:13:30;;;;;;;2.30;1.92;;;;;;;;;;4941273;28;20030;-76
2023/07/08 06:15:56;;;;;;;3.70;3.40;;;;;;;;;;4947665;28;20101;-75
2023/07/08 06:18:21;;;;;;;3.17;2.88;;;;;;;;;;4952957;28;20065;-76
2023/07/08 06:20:57;;;;;;;4.97;2.83;;;;;;;;;;4950659;28;20030;-76
2023/07/08 06:23:23;;;;;;;3.20;2.88;;;;;;;;;;4941021;28;20038;-76
2023/07/08 06:25:49;;;;;;;4.70;2.92;;;;;;;;;;4942766;28;20091;-76
2023/07/08 06:28:14;;;;;;;5.43;3.17;;;;;;;;;;4941081;28;20039;-75
2023/07/08 06:30:40;;;;;;;2.40;2.15;;;;;;;;;;4943669;28;20379;-76
2023/07/08 06:33:05;;;;;;;3.88;2.92;;;;;;;;;;4944518;28;20023;-77
2023/07/08 06:35:31;;;;;;;5.38;3.58;;;;;;;;;;4942512;28;20039;-76
2023/07/08 06:37:56;;;;;;;3.60;2.83;;;;;;;;;;4939155;28;20087;-76
2023/07/08 06:40:22;;;;;;;3.92;3.00;;;;;;;;;;4940252;28;20034;-76
2023/07/08 06:42:47;;;;;;;8.43;3.45;;;;;;;;;;4938367;28;20042;-77
2023/07/08 06:45:13;;;;;;;3.55;3.22;;;;;;;;;;4940720;28;20031;-76
2023/07/08 06:47:38;;;;;;;4.88;3.13;;;;;;;;;;4939516;28;20560;-77
2023/07/08 06:50:05;;;;;;;4.63;3.42;;;;;;;;;;4941253;28;20019;-76
2023/07/08 06:52:35;;;;;;;4.22;3.15;;;;;;;;;;4940680;28;20082;-76
2023/07/08 06:55:06;;;;;;;3.37;3.07;;;;;;;;;;4940634;28;20050;-75
2023/07/08 06:57:33;;;;;;;4.75;3.42;;;;;;;;;;4937720;28;20023;-76
2023/07/08 06:59:58;;;;;;;3.17;2.88;;;;;;;;;;4943790;28;20114;-76
2023/07/08 07:02:24;;;;;;;4.32;3.08;;;;;;;;;;4944159;28;20031;-76
2023/07/08 07:04:49;;;;;;;4.30;3.38;;;;;;;;;;4945909;28;20365;-76
2023/07/08 07:07:15;;;;;;;3.38;3.08;;;;;;;;;;4944537;28;20178;-76
2023/07/08 07:09:40;;;;;;;3.55;2.90;;;;;;;;;;4943802;28;20403;-76
2023/07/08 07:12:06;;;;;;;3.25;2.80;;;;;;;;;;4944553;28;20019;-76
2023/07/08 07:14:32;;;;;;;4.78;2.88;;;;;;;;;;4944457;28;20046;-77
2023/07/08 07:16:57;;;;;;;4.68;3.50;;;;;;;;;;4945139;28;20031;-77
2023/07/08 07:19:23;;;;;;;4.00;3.35;;;;;;;;;;4943637;28;20023;-75
2023/07/08 07:21:48;;;;;;;5.93;3.08;;;;;;;;;;4943875;28;20548;-76
2023/07/08 07:24:14;;;;;;;4.18;2.78;;;;;;;;;;4947320;28;20027;-76
2023/07/08 07:26:39;;;;;;;8.40;3.60;;;;;;;;;;4944858;28;20067;-76
2023/07/08 07:29:05;;;;;;;3.42;3.00;;;;;;;;;;4944580;28;20354;-77
2023/07/08 07:31:32;;;;;;;5.28;3.60;;;;;;;;;;4942665;28;20043;-77
2023/07/08 07:33:58;;;;;;;5.07;3.85;;;;;;;;;;4943422;28;20104;-76
2023/07/08 07:36:23;;;;;;;3.50;3.20;;;;;;;;;;4942717;28;20054;-76
2023/07/08 07:38:49;;;;;;;4.68;3.45;;;;;;;;;;4939902;28;20062;-77
2023/07/08 07:41:14;;;;;;;5.47;3.58;;;;;;;;;;4938906;28;20035;-77
2023/07/08 07:43:40;;;;;;;4.68;3.40;;;;;;;;;;4943092;28;20063;-76
2023/07/08 07:46:05;;;;;;;3.97;3.42;;;;;;;;;;4944653;28;20039;-76
2023/07/08 07:48:32;;;;;;;4.43;3.42;;;;;;;;;;4945234;28;20393;-77
2023/07/08 07:50:57;;;;;;;4.28;3.00;;;;;;;;;;4941415;28;20032;-76
2023/07/08 07:53:23;;;;;;;3.42;3.13;;;;;;;;;;4942252;28;20502;-76
2023/07/08 07:55:56;;;;;;;5.78;3.47;;;;;;;;;;4941278;28;20038;-76
2023/07/08 07:58:21;;;;;;;3.55;3.22;;;;;;;;;;4943328;28;20083;-76
2023/07/08 08:00:48;;;;;;;3.22;2.38;;;;;;;;;;4939404;28;20051;-77
2023/07/08 08:03:16;;;;;;;4.15;2.95;;;;;;;;;;4940662;28;20050;-76
2023/07/08 08:05:42;;;;;;;4.03;3.30;;;;;;;;;;4942890;28;20106;-77
2023/07/08 08:08:07;;;;;;;3.25;2.75;;;;;;;;;;4944689;28;20020;-77
2023/07/08 08:10:33;;;;;;;5.13;3.60;;;;;;;;;;4943551;28;20046;-76
2023/07/08 08:12:58;;;;;;;2.25;2.05;;;;;;;;;;4940752;28;20115;-77
2023/07/08 08:15:24;;;;;;;2.33;2.13;;;;;;;;;;4944443;28;20039;-77
2023/07/08 08:17:51;;;;;;;4.70;3.30;;;;;;;;;;4941115;28;20023;-77
2023/07/08 08:20:18;;;;;;;3.95;3.40;;;;;;;;;;4942227;28;20070;-77
2023/07/08 08:22:43;;;;;;;3.75;3.45;;;;;;;;;;4938245;28;20035;-77
2023/07/08 08:25:10;;;;;;;5.95;3.90;;;;;;;;;;4942558;28;20023;-77
2023/07/08 08:27:35;;;;;;;4.35;3.58;;;;;;;;;;4945020;28;20054;-77
2023/07/08 08:30:01;;;;;;;3.80;3.10;;;;;;;;;;4944710;28;20492;-77
2023/07/08 08:32:27;;;;;;;4.18;3.22;;;;;;;;;;4947997;28;20139;-77
2023/07/08 08:34:52;;;;;;;5.40;3.40;;;;;;;;;;4941557;28;20035;-77
2023/07/08 08:37:17;;;;;;;5.35;3.10;;;;;;;;;;4944478;28;20011;-77
2023/07/08 08:39:43;;;;;;;3.85;3.45;;;;;;;;;;4948491;28;20039;-77
2023/07/08 08:42:40;;;;;;;4.93;3.60;;;;;;;;;;4942075;28;20132;-76
2023/07/08 08:45:10;;;;;;;3.47;3.17;;;;;;;;;;4936544;28;20522;-77
2023/07/08 08:47:38;;;;;;;3.70;3.40;;;;;;;;;;4940751;28;20078;-76
2023/07/08 08:50:29;;;;;;;2.72;2.53;;;;;;;;;;4941207;28;20114;-77
2023/07/08 08:52:56;;;;;;;3.33;2.97;;;;;;;;;;4940088;28;20039;-77
2023/07/08 08:55:24;;;;;;;5.78;3.50;;;;;;;;;;4941927;28;20445;-77
2023/07/08 08:57:54;;;;;;;6.20;3.50;;;;;;;;;;4939238;28;20025;-76
2023/07/08 09:00:28;;;;;;;4.10;3.67;;;;;;;;;;4948503;28;20031;-76
2023/07/08 09:03:04;;;;;;;3.78;3.47;;;;;;;;;;4938547;28;20024;-77
2023/07/08 09:05:29;;;;;;;7.18;3.40;;;;;;;;;;4940598;28;20019;-78
2023/07/08 09:08:07;;;;;;;4.55;3.35;;;;;;;;;;4940743;28;20031;-77
2023/07/08 09:10:57;;;;;;;3.80;3.50;;;;;;;;;;4941228;28;20035;-78
2023/07/08 09:13:47;;;;;;;3.00;2.70;;;;;;;;;;4951376;28;20027;-77
2023/07/08 09:16:34;;;;;;;3.35;3.00;;;;;;;;;;4959001;28;20030;-77
2023/07/08 09:19:22;;;;;;;3.80;3.40;;;;;;;;;;4952407;28;20181;-76
2023/07/08 09:21:53;;;;;;;3.83;3.45;;;;;;;;;;4948176;28;20020;-77
2023/07/08 09:24:35;;;;;;;4.03;3.63;;;;;;;;;;4938567;28;20054;-77
2023/07/08 09:27:02;;;;;;;4.47;3.50;;;;;;;;;;4940933;28;20045;-77
2023/07/08 09:29:28;;;;;;;7.03;3.53;;;;;;;;;;4938458;28;20062;-77
2023/07/08 09:31:54;;;;;;;3.67;3.35;;;;;;;;;;4938649;28;20424;-77
2023/07/08 09:34:22;;;;;;;4.53;3.83;;;;;;;;;;4943075;28;20038;-77
2023/07/08 09:36:49;;;;;;;5.45;3.25;;;;;;;;;;4940738;28;20015;-77
2023/07/08 09:39:20;;;;;;;4.22;3.20;;;;;;;;;;4937927;28;20038;-77
2023/07/08 09:41:47;;;;;;;3.92;3.10;;;;;;;;;;4937703;28;20420;-77
2023/07/08 09:44:26;;;;;;;4.03;3.47;;;;;;;;;;4938409;28;20050;-77
2023/07/08 09:46:53;;;;;;;2.83;2.63;;;;;;;;;;4937253;28;20407;-77
2023/07/08 09:49:30;;;;;;;2.92;2.60;;;;;;;;;;4938468;28;20046;-77
2023/07/08 09:51:56;;;;;;;3.88;3.20;;;;;;;;;;4937828;28;20035;-77
2023/07/08 09:54:23;;;;;;;4.00;3.60;;;;;;;;;;4938007;28;20037;-77
2023/07/08 09:57:11;;;;;;;3.70;3.20;;;;;;;;;;4935582;28;20078;-77
2023/07/08 09:59:46;;;;;;;3.50;3.20;;;;;;;;;;4933352;28;20550;-78
2023/07/08 10:02:31;;;;;;;3.67;3.38;;;;;;;;;;4936987;28;20118;-78
2023/07/08 10:05:02;;;;;;;3.10;2.70;;;;;;;;;;4939815;28;20031;-78
2023/07/08 10:07:31;;;;;;;3.60;3.28;;;;;;;;;;4936413;28;20467;-78
2023/07/08 10:09:59;;;;;;;3.00;2.70;;;;;;;;;;4936025;28;20126;-78
2023/07/08 10:12:26;;;;;;;3.65;3.35;;;;;;;;;;4938573;28;20044;-77
2023/07/08 10:14:58;;;;;;;3.60;3.30;;;;;;;;;;4941910;28;20575;-77
2023/07/08 10:17:23;;;;;;;3.63;3.33;;;;;;;;;;4942828;28;20054;-78
2023/07/08 10:19:49;;;;;;;3.30;2.97;;;;;;;;;;4938805;28;20070;-78
2023/07/08 10:22:40;;;;;;;3.55;2.67;;;;;;;;;;4936237;28;20496;-78
2023/07/08 10:25:18;;;;;;;4.93;3.58;;;;;;;;;;4934628;28;20027;-78
2023/07/08 10:28:37;;;;;;;3.95;3.38;;;;;;;;;;4936195;28;20024;-78
2023/07/08 10:31:20;;;;;;;7.35;3.70;;;;;;;;;;4938294;28;20500;-78
2023/07/08 10:34:28;;;;;;;3.10;2.80;;;;;;;;;;4940748;28;20035;-78
2023/07/08 10:37:22;;;;;;;5.53;3.55;;;;;;;;;;4920911;28;20043;-78
2023/07/08 10:40:13;;;;;;;3.47;3.17;;;;;;;;;;4942539;28;20047;-78
2023/07/08 10:43:31;;;;;;;3.40;3.13;;;;;;;;;;4937822;28;20034;-78
2023/07/08 10:46:05;;;;;;;4.40;4.00;;;;;;;;;;4915745;29;20036;-78
2023/07/08 10:49:09;;;;;;;4.55;3.72;;;;;;;;;;4916863;29;20032;-78
2023/07/08 10:52:30;;;;;;;6.18;3.83;;;;;;;;;;4950278;28;20060;-78
2023/07/08 10:55:05;;;;;;;3.88;3.50;;;;;;;;;;4898260;28;20040;-78
2023/07/08 10:58:00;;;;;;;4.00;3.60;;;;;;;;;;4939828;28;20054;-78
2023/07/08 11:01:01;;;;;;;4.65;3.75;;;;;;;;;;4940624;28;20031;-78
2023/07/08 11:03:38;;;;;;;4.50;3.45;;;;;;;;;;4947055;28;20051;-78
2023/07/08 11:06:36;;;;;;;3.35;3.05;;;;;;;;;;4943230;28;20027;-78
2023/07/08 11:09:05;;;;;;;5.20;3.40;;;;;;;;;;4946727;28;20039;-78
2023/07/08 11:11:33;;;;;;;2.78;2.40;;;;;;;;;;4944764;28;20039;-78
2023/07/08 11:14:05;;;;;;;6.03;3.53;;;;;;;;;;4944551;28;20039;-78
2023/07/08 11:16:41;;;;;;;5.38;3.38;;;;;;;;;;4949003;28;20027;-78
2023/07/08 11:19:21;;;;;;;4.35;3.45;;;;;;;;;;4944561;28;20948;-78
2023/07/08 11:21:50;;;;;;;2.80;2.60;;;;;;;;;;4940904;28;20035;-78
2023/07/08 11:24:18;;;;;;;5.82;3.60;;;;;;;;;;4945275;28;20020;-78
2023/07/08 11:26:52;;;;;;;2.90;2.67;;;;;;;;;;4944509;28;20022;-78
2023/07/08 11:29:24;;;;;;;4.00;3.53;;;;;;;;;;4944020;28;20027;-78
2023/07/08 11:31:51;;;;;;;4.10;3.70;;;;;;;;;;4942985;28;20527;-78
2023/07/08 11:34:19;;;;;;;3.75;3.38;;;;;;;;;;4946979;28;20030;-78
2023/07/08 11:36:46;;;;;;;3.90;3.50;;;;;;;;;;4945130;28;20403;-78
2023/07/08 11:40:11;;;;;;;3.58;2.97;;;;;;;;;;4944910;28;20119;-78
2023/07/08 11:42:42;;;;;;;4.72;3.17;;;;;;;;;;4897245;29;20164;-78
2023/07/08 11:45:31;;;;;;;2.92;2.72;;;;;;;;;;4945262;28;20094;-78
2023/07/08 11:48:06;;;;;;;3.95;3.50;;;;;;;;;;4934236;28;20079;-78
2023/07/08 11:50:43;;;;;;;4.22;3.88;;;;;;;;;;4949139;28;20027;-78
2023/07/08 11:53:11;;;;;;;4.30;3.38;;;;;;;;;;4947788;28;20051;-78
2023/07/08 11:56:00;;;;;;;3.88;3.30;;;;;;;;;;4940749;28;20122;-75
2023/07/08 11:58:27;;;;;;;4.13;3.20;;;;;;;;;;4940803;28;20034;-76
2023/07/08 12:01:03;;;;;;;3.00;2.65;;;;;;;;;;4945586;28;20028;-76
2023/07/08 12:03:37;;;;;;;3.00;2.72;;;;;;;;;;4945957;28;20106;-76
2023/07/08 12:06:31;;;;;;;3.95;3.10;;;;;;;;;;4940809;28;20034;-76
2023/07/08 12:08:59;;;;;;;3.95;3.20;;;;;;;;;;4939096;28;20026;-76
2023/07/08 12:11:30;;;;;;;3.28;2.90;;;;;;;;;;4944171;28;20027;-76
2023/07/08 12:13:59;;;;;;;3.83;3.20;;;;;;;;;;4945724;28;20444;-76
2023/07/08 12:16:25;;;;;;;4.90;3.65;;;;;;;;;;4945002;28;20435;-76
2023/07/08 12:18:52;;;;;;;4.00;3.60;;;;;;;;;;4948507;28;20380;-73
2023/07/08 12:21:18;;;;;;;7.20;3.35;;;;;;;;;;4948629;28;20019;-75
2023/07/08 12:23:45;;;;;;;4.10;3.70;;;;;;;;;;4944172;28;20042;-75
2023/07/08 12:26:11;;;;;;;3.33;3.03;;;;;;;;;;4942802;28;20075;-76
2023/07/08 12:28:38;;;;;;;2.83;2.63;;;;;;;;;;4945825;28;20062;-75
2023/07/08 12:31:13;;;;;;;6.95;3.28;;;;;;;;;;4942419;28;20475;-76
2023/07/08 12:33:39;;;;;;;3.63;3.33;;;;;;;;;;4942260;28;20031;-74
2023/07/08 12:36:05;;;;;;;3.60;3.17;;;;;;;;;;4947575;28;20097;-74
2023/07/08 12:38:32;;;;;;;4.65;3.50;;;;;;;;;;4943307;28;20114;-75
2023/07/08 12:41:10;;;;;;;4.15;3.75;;;;;;;;;;4942431;28;20067;-75
2023/07/08 12:43:36;;;;;;;4.15;3.40;;;;;;;;;;4948120;28;20559;-75
2023/07/08 12:46:03;;;;;;;4.15;3.75;;;;;;;;;;4945361;28;20118;-74
2023/07/08 12:48:33;;;;;;;4.07;3.72;;;;;;;;;;4944700;28;20027;-75
2023/07/08 12:50:59;;;;;;;4.20;3.58;;;;;;;;;;4941399;28;20359;-75
2023/07/08 12:53:24;;;;;;;3.80;3.40;;;;;;;;;;4943850;28;20023;-75
2023/07/08 12:55:54;;;;;;;4.00;3.60;;;;;;;;;;4944718;28;20547;-75
2023/07/08 12:58:28;;;;;;;3.35;3.05;;;;;;;;;;4941502;28;20031;-76
2023/07/08 13:00:55;;;;;;;5.18;3.70;;;;;;;;;;4941285;28;20039;-75
2023/07/08 13:03:25;;;;;;;4.28;2.90;;;;;;;;;;4947583;28;20372;-75
2023/07/08 13:05:53;;;;;;;3.67;3.38;;;;;;;;;;4946965;28;20023;-75
2023/07/08 13:08:22;;;;;;;3.63;3.33;;;;;;;;;;4945020;28;20036;-75
2023/07/08 13:10:49;;;;;;;3.97;3.67;;;;;;;;;;4940282;28;20023;-75
2023/07/08 13:13:21;;;;;;;3.63;3.33;;;;;;;;;;4941161;28;20120;-75
2023/07/08 13:15:46;;;;;;;4.10;3.70;;;;;;;;;;4943457;28;20038;-74
2023/07/08 13:18:15;;;;;;;3.83;3.42;;;;;;;;;;4949415;28;20155;-75
2023/07/08 13:20:42;;;;;;;4.25;3.85;;;;;;;;;;4943180;28;20027;-75
2023/07/08 13:23:08;;;;;;;4.43;3.97;;;;;;;;;;4938373;28;20035;-76
2023/07/08 13:25:37;;;;;;;4.20;3.80;;;;;;;;;;4947263;28;20078;-76
2023/07/08 13:28:15;;;;;;;;;;;;;;;;;;4949042;28;20057;-74
2023/07/08 13:30:51;;;;;;;4.00;3.50;;;;;;;;;;4945270;28;19922;-75
2023/07/08 13:33:17;;;;;;;4.03;3.50;;;;;;;;;;4940058;28;20031;-75
2023/07/08 13:35:43;;;;;;;4.88;3.50;;;;;;;;;;4943977;28;20095;-75
2023/07/08 13:38:18;;;;;;;3.80;3.45;;;;;;;;;;4944118;28;20036;-75
2023/07/08 13:40:48;;;;;;;3.85;3.45;;;;;;;;;;4944190;28;20110;-75
2023/07/08 13:43:15;;;;;;;4.15;3.38;;;;;;;;;;4945327;28;20031;-75
2023/07/08 13:45:47;;;;;;;4.32;3.10;;;;;;;;;;4943201;28;20031;-74
2023/07/08 13:48:28;;;;;;;4.22;3.60;;;;;;;;;;4947273;28;20039;-75
2023/07/08 13:50:58;;;;;;;6.32;3.80;;;;;;;;;;4941814;28;20122;-74
2023/07/08 13:53:33;;;;;;;4.63;3.75;;;;;;;;;;4943109;28;20031;-74
2023/07/08 13:56:04;;;;;;;3.78;3.47;;;;;;;;;;4937726;28;20122;-75
2023/07/08 13:58:30;;;;;;;3.97;3.67;;;;;;;;;;4944599;28;20027;-75
2023/07/08 14:00:56;;;;;;;4.03;3.63;;;;;;;;;;4947478;28;20059;-74
2023/07/08 14:05:50;;;;;;;9.13;4.25;;;;;;;;;;4982821;28;20554;-77
2023/07/08 14:08:17;;;;;;;3.83;3.47;;;;;;;;;;4986498;28;20560;-77
2023/07/08 14:10:43;;;;;;;4.13;3.33;;;;;;;;;;4986662;28;20019;-77
2023/07/08 14:13:10;;;;;;;4.10;3.50;;;;;;;;;;4979269;28;20034;-76
2023/07/08 14:15:38;;;;;;;4.53;3.70;;;;;;;;;;4967369;28;20035;-77
2023/07/08 14:18:03;;;;;;;4.10;3.80;;;;;;;;;;4968169;28;20023;-77
2023/07/08 14:20:29;;;;;;;5.28;3.70;;;;;;;;;;4966248;28;20085;-78
2023/07/08 14:22:55;;;;;;;5.40;3.85;;;;;;;;;;4965130;28;20026;-77
2023/07/08 14:25:23;;;;;;;4.90;4.07;;;;;;;;;;4966629;28;20014;-77
2023/07/08 14:27:51;;;;;;;4.47;3.67;;;;;;;;;;4967374;28;20019;-77
2023/07/08 14:30:17;;;;;;;3.80;3.50;;;;;;;;;;4966587;28;20413;-76
2023/07/08 14:32:43;;;;;;;3.97;3.55;;;;;;;;;;4966851;28;20027;-77
2023/07/08 14:35:17;;;;;;;4.78;3.53;;;;;;;;;;4968452;28;20031;-77
2023/07/08 14:37:43;;;;;;;8.05;7.25;;;;;;;;;;4957085;28;20034;-76
2023/07/08 14:40:12;;;;;;;4.40;3.67;;;;;;;;;;4967425;28;20475;-77
2023/07/08 14:42:37;;;;;;;4.95;4.47;;;;;;;;;;4965718;28;20117;-77
2023/07/08 14:45:03;;;;;;;4.97;4.47;;;;;;;;;;4968482;28;20106;-78
2023/07/08 14:47:28;;;;;;;11.32;10.20;;;;;;;;;;4967606;28;20491;-77
2023/07/08 14:49:53;;;;;;;8.40;5.05;;;;;;;;;;4966554;28;20070;-77
2023/07/08 14:52:19;;;;;;;7.40;6.80;;;;;;;;;;4966625;28;20141;-77
2023/07/08 14:54:44;;;;;;;7.32;6.72;;;;;;;;;;4968705;28;20031;-76
2023/07/08 14:57:15;;;;;;;4.07;3.67;;;;;;;;;;4964891;28;20023;-78
2023/07/08 14:59:41;;;;;;;3.80;3.40;;;;;;;;;;4967405;28;20023;-77